createdAt,value
2018-02-08T00:02:00.449Z,60.23
2018-02-08T00:04:28.084Z,60.17
2018-02-08T00:06:56.476Z,58.77
2018-02-08T00:09:24.128Z,57.87
2018-02-08T00:11:52.553Z,66.37
2018-02-08T00:14:20.174Z,63.60
2018-02-08T00:16:48.566Z,64.17
2018-02-08T00:19:16.205Z,57.00
2018-02-08T00:21:44.578Z,69.83
2018-02-08T00:24:13.000Z,65.37
2018-02-08T00:26:40.612Z,60.03
2018-02-08T00:29:08.227Z,67.17
2018-02-08T00:31:35.872Z,69.87
2018-02-08T00:34:03.509Z,70.60
2018-02-08T00:36:31.916Z,62.13
2018-02-08T00:38:59.598Z,62.33
2018-02-08T00:41:27.226Z,61.20
2018-02-08T00:43:54.855Z,72.50
2018-02-08T00:46:22.514Z,63.60
2018-02-08T00:48:50.152Z,69.90
2018-02-08T00:51:17.768Z,68.07
2018-02-08T00:53:45.402Z,61.50
2018-02-08T00:56:13.785Z,62.70
2018-02-08T00:58:42.197Z,59.00
2018-02-08T01:01:09.806Z,66.17
2018-02-08T01:03:37.445Z,65.30
2018-02-08T01:06:05.055Z,68.20
2018-02-08T01:08:33.470Z,63.90
2018-02-08T01:11:01.112Z,62.63
2018-02-08T01:13:28.799Z,61.63
2018-02-08T01:15:56.431Z,66.40
2018-02-08T01:18:24.842Z,65.77
2018-02-08T01:20:52.530Z,63.13
2018-02-08T01:23:20.182Z,63.80
2018-02-08T01:25:47.839Z,67.93
2018-02-08T01:28:15.482Z,59.80
2018-02-08T01:30:43.169Z,62.53
2018-02-08T01:33:10.792Z,67.13
2018-02-08T01:35:38.441Z,65.60
2018-02-08T01:38:06.861Z,65.60
2018-02-08T01:40:34.511Z,69.93
2018-02-08T01:43:02.188Z,66.83
2018-02-08T01:45:29.819Z,72.57
2018-02-08T01:47:57.487Z,69.00
2018-02-08T01:50:25.167Z,64.17
2018-02-08T01:52:52.809Z,68.07
2018-02-08T01:55:20.461Z,69.67
2018-02-08T01:57:48.126Z,69.10
2018-02-08T02:00:15.789Z,68.13
2018-02-08T02:02:43.449Z,70.13
2018-02-08T02:05:11.080Z,68.73
2018-02-08T02:07:38.757Z,74.87
2018-02-08T02:10:07.184Z,78.77
2018-02-08T02:12:34.828Z,85.77
2018-02-08T02:15:02.494Z,69.67
2018-02-08T02:17:30.138Z,69.70
2018-02-08T02:19:57.783Z,70.00
2018-02-08T02:22:26.214Z,57.73
2018-02-08T02:24:53.844Z,71.93
2018-02-08T02:27:21.510Z,63.43
2018-02-08T02:29:49.172Z,74.37
2018-02-08T02:32:16.816Z,71.83
2018-02-08T02:34:45.257Z,73.37
2018-02-08T02:37:12.936Z,64.80
2018-02-08T02:39:40.605Z,69.93
2018-02-08T02:42:09.018Z,64.17
2018-02-08T02:44:36.679Z,68.53
2018-02-08T02:47:04.341Z,71.73
2018-02-08T02:49:31.975Z,64.30
2018-02-08T02:52:00.410Z,67.87
2018-02-08T02:54:28.233Z,66.53
2018-02-08T02:56:55.922Z,68.53
2018-02-08T02:59:23.588Z,59.60
2018-02-08T03:01:51.225Z,68.10
2018-02-08T03:04:18.886Z,65.73
2018-02-08T03:06:46.526Z,65.77
2018-02-08T03:09:14.976Z,64.40
2018-02-08T03:11:42.614Z,65.20
2018-02-08T03:14:10.306Z,64.27
2018-02-08T03:16:37.949Z,69.30
2018-02-08T03:19:05.584Z,70.03
2018-02-08T03:21:33.250Z,60.40
2018-02-08T03:24:00.897Z,68.97
2018-02-08T03:26:28.561Z,60.73
2018-02-08T03:28:57.105Z,64.50
2018-02-08T03:31:26.413Z,67.03
2018-02-08T03:33:54.072Z,76.33
2018-02-08T03:36:21.713Z,73.07
2018-02-08T03:38:49.410Z,69.00
2018-02-08T03:41:17.858Z,65.70
2018-02-08T03:43:45.519Z,66.27
2018-02-08T03:46:13.158Z,64.03
2018-02-08T03:48:40.830Z,68.80
2018-02-08T03:51:08.468Z,72.10
2018-02-08T03:53:36.119Z,72.03
2018-02-08T03:56:03.792Z,71.80
2018-02-08T03:58:31.453Z,69.10
2018-02-08T04:00:59.106Z,70.40
2018-02-08T04:03:26.767Z,72.93
2018-02-08T04:05:54.406Z,71.93
2018-02-08T04:08:22.868Z,67.50
2018-02-08T04:10:50.520Z,72.43
2018-02-08T04:13:18.166Z,76.87
2018-02-08T04:15:45.815Z,67.53
2018-02-08T04:18:13.515Z,65.73
2018-02-08T04:20:41.162Z,73.77
2018-02-08T04:23:08.852Z,73.90
2018-02-08T04:25:37.278Z,75.30
2018-02-08T04:28:04.989Z,70.10
2018-02-08T04:30:33.476Z,81.83
2018-02-08T04:33:01.151Z,73.10
2018-02-08T04:35:29.599Z,69.90
2018-02-08T04:37:57.232Z,79.90
2018-02-08T04:40:37.200Z,76.53
2018-02-08T04:43:16.835Z,69.53
2018-02-08T04:45:56.378Z,80.17
2018-02-08T04:48:24.021Z,87.17
2018-02-08T04:50:51.664Z,73.90
2018-02-08T04:53:19.349Z,93.50
2018-02-08T04:55:46.991Z,82.50
2018-02-08T04:58:14.669Z,72.07
2018-02-08T05:00:42.419Z,73.63
2018-02-08T05:03:10.093Z,78.87
2018-02-08T05:05:37.806Z,74.97
2018-02-08T05:08:05.447Z,76.90
2018-02-08T05:10:33.104Z,74.83
2018-02-08T05:13:00.761Z,90.80
2018-02-08T05:15:29.187Z,89.07
2018-02-08T05:17:57.616Z,86.23
2018-02-08T05:20:25.295Z,77.40
2018-02-08T05:22:52.968Z,79.33
2018-02-08T05:25:20.639Z,82.20
2018-02-08T05:27:48.297Z,73.23
2018-02-08T05:30:15.964Z,77.33
2018-02-08T05:32:43.632Z,80.00
2018-02-08T05:35:12.035Z,78.13
2018-02-08T05:37:39.671Z,84.40
2018-02-08T05:40:08.110Z,91.40
2018-02-08T05:42:35.806Z,86.43
2018-02-08T05:45:03.520Z,86.20
2018-02-08T05:47:31.183Z,80.93
2018-02-08T05:49:58.839Z,94.93
2018-02-08T05:52:26.526Z,83.10
2018-02-08T05:54:54.171Z,85.43
2018-02-08T05:57:21.871Z,104.13
2018-02-08T05:59:49.517Z,88.95
2018-02-08T06:02:17.168Z,89.73
2018-02-08T06:04:45.890Z,95.80
2018-02-08T06:07:13.529Z,93.40
2018-02-08T06:09:41.180Z,96.67
2018-02-08T06:12:08.885Z,90.43
2018-02-08T06:14:37.306Z,87.30
2018-02-08T06:17:04.957Z,91.67
2018-02-08T06:19:32.662Z,90.70
2018-02-08T06:22:00.331Z,94.00
2018-02-08T06:24:27.990Z,89.27
2018-02-08T06:26:55.670Z,85.60
2018-02-08T06:29:24.093Z,90.47
2018-02-08T06:31:51.797Z,81.03
2018-02-08T06:34:19.448Z,81.83
2018-02-08T06:36:47.101Z,92.50
2018-02-08T06:39:14.796Z,88.12
2018-02-08T06:41:43.222Z,99.00
2018-02-08T06:44:10.871Z,94.53
2018-02-08T06:46:38.599Z,90.60
2018-02-08T06:49:07.183Z,91.63
2018-02-08T06:51:34.838Z,89.93
2018-02-08T06:54:02.512Z,92.30
2018-02-08T06:56:30.997Z,101.33
2018-02-08T06:58:59.406Z,99.00
2018-02-08T07:01:27.278Z,104.83
2018-02-08T07:03:54.992Z,100.13
2018-02-08T07:06:22.637Z,95.27
2018-02-08T07:08:50.301Z,102.73
2018-02-08T07:11:18.998Z,160.43
2018-02-08T07:13:46.654Z,100.47
2018-02-08T07:16:14.461Z,91.20
2018-02-08T07:18:42.187Z,90.80
2018-02-08T07:21:09.833Z,92.73
2018-02-08T07:23:38.253Z,106.77
2018-02-08T07:26:06.703Z,105.03
2018-02-08T07:28:34.348Z,98.50
2018-02-08T07:31:01.999Z,93.27
2018-02-08T07:33:29.704Z,105.07
2018-02-08T07:35:57.377Z,98.47
2018-02-08T07:38:25.798Z,104.60
2018-02-08T07:40:53.575Z,101.37
2018-02-08T07:43:21.254Z,101.00
2018-02-08T07:45:48.909Z,107.83
2018-02-08T07:48:16.599Z,110.77
2018-02-08T07:50:45.017Z,105.53
2018-02-08T07:53:12.669Z,102.47
2018-02-08T07:55:40.341Z,104.37
2018-02-08T07:58:08.084Z,102.30
2018-02-08T08:00:36.504Z,98.10
2018-02-08T08:03:04.164Z,101.53
2018-02-08T08:05:31.875Z,103.20
2018-02-08T08:08:00.328Z,99.83
2018-02-08T08:10:27.984Z,104.73
2018-02-08T08:12:55.674Z,88.73
2018-02-08T08:15:23.317Z,99.30
2018-02-08T08:17:50.974Z,102.90
2018-02-08T08:20:18.697Z,102.77
2018-02-08T08:22:46.355Z,100.73
2018-02-08T08:25:14.003Z,98.33
2018-02-08T08:27:42.460Z,103.73
2018-02-08T08:30:10.118Z,100.07
2018-02-08T08:32:37.807Z,101.23
2018-02-08T08:35:06.215Z,90.60
2018-02-08T08:37:33.883Z,88.27
2018-02-08T08:40:01.564Z,96.80
2018-02-08T08:42:29.207Z,111.40
2018-02-08T08:44:56.858Z,100.53
2018-02-08T08:47:24.610Z,95.47
2018-02-08T08:49:52.367Z,92.80
2018-02-08T08:52:20.167Z,113.50
2018-02-08T08:54:47.888Z,93.60
2018-02-08T08:57:15.696Z,111.30
2018-02-08T08:59:43.364Z,109.70
2018-02-08T09:02:11.079Z,100.47
2018-02-08T09:04:39.492Z,103.67
2018-02-08T09:07:07.151Z,95.77
2018-02-08T09:09:34.830Z,92.70
2018-02-08T09:12:02.486Z,92.03
2018-02-08T09:14:30.213Z,96.70
2018-02-08T09:16:57.866Z,95.67
2018-02-08T09:19:26.273Z,96.17
2018-02-08T09:21:54.161Z,91.60
2018-02-08T09:24:21.803Z,97.53
2018-02-08T09:26:49.456Z,111.10
2018-02-08T09:29:17.160Z,99.70
2018-02-08T09:31:44.833Z,107.73
2018-02-08T09:34:12.502Z,105.20
2018-02-08T09:36:40.199Z,114.77
2018-02-08T09:39:07.916Z,112.93
2018-02-08T09:41:35.568Z,112.77
2018-02-08T09:44:04.008Z,111.67
2018-02-08T09:46:31.681Z,114.67
2018-02-08T09:48:59.406Z,101.23
2018-02-08T09:51:27.817Z,100.87
2018-02-08T09:53:55.481Z,104.17
2018-02-08T09:56:23.188Z,103.93
2018-02-08T09:58:50.851Z,104.47
2018-02-08T10:01:18.520Z,100.07
2018-02-08T10:03:46.200Z,110.37
2018-02-08T10:06:15.672Z,113.83
2018-02-08T10:08:43.325Z,105.63
2018-02-08T10:11:11.005Z,108.67
2018-02-08T10:13:38.672Z,102.23
2018-02-08T10:16:06.372Z,106.17
2018-02-08T10:18:34.014Z,105.83
2018-02-08T10:21:02.440Z,103.47
2018-02-08T10:23:30.152Z,117.33
2018-02-08T10:25:58.559Z,109.37
2018-02-08T10:28:26.249Z,106.20
2018-02-08T10:30:53.951Z,108.93
2018-02-08T10:33:21.601Z,107.93
2018-02-08T10:35:49.257Z,105.53
2018-02-08T10:38:16.937Z,102.30
2018-02-08T10:40:44.595Z,104.60
2018-02-08T10:43:12.278Z,114.00
2018-02-08T10:45:40.692Z,104.03
2018-02-08T10:48:08.345Z,105.87
2018-02-08T10:50:36.033Z,114.33
2018-02-08T10:53:03.709Z,113.50
2018-02-08T10:55:31.403Z,107.03
2018-02-08T10:57:59.828Z,111.33
2018-02-08T11:00:27.477Z,103.73
2018-02-08T11:02:55.184Z,105.90
2018-02-08T11:05:22.842Z,106.93
2018-02-08T11:07:50.497Z,114.47
2018-02-08T11:10:18.198Z,109.93
2018-02-08T11:12:45.873Z,104.53
2018-02-08T11:15:13.615Z,117.10
2018-02-08T11:17:41.314Z,111.03
2018-02-08T11:20:08.976Z,109.33
2018-02-08T11:22:36.641Z,118.23
2018-02-08T11:25:04.288Z,107.17
2018-02-08T11:27:32.037Z,105.20
2018-02-08T11:29:59.684Z,109.60
2018-02-08T11:32:28.108Z,114.33
2018-02-08T11:34:55.793Z,108.20
2018-02-08T11:37:23.443Z,109.40
2018-02-08T11:39:51.131Z,112.83
2018-02-08T11:42:18.812Z,105.93
2018-02-08T11:44:47.228Z,105.70
2018-02-08T11:47:14.914Z,93.70
2018-02-08T11:49:42.557Z,101.40
2018-02-08T11:52:10.221Z,97.70
2018-02-08T11:54:37.870Z,101.67
2018-02-08T11:57:05.551Z,118.97
2018-02-08T11:59:33.193Z,100.27
2018-02-08T12:02:00.857Z,99.10
2018-02-08T12:04:28.525Z,110.77
2018-02-08T12:06:56.264Z,113.90
2018-02-08T12:09:24.036Z,106.40
2018-02-08T12:11:51.802Z,104.13
2018-02-08T12:14:19.472Z,112.17
2018-02-08T12:16:47.178Z,110.13
2018-02-08T12:19:14.841Z,107.10
2018-02-08T12:21:42.526Z,113.47
2018-02-08T12:24:11.016Z,110.53
2018-02-08T12:26:39.289Z,103.47
2018-02-08T12:29:07.700Z,107.43
2018-02-08T12:31:35.377Z,108.40
2018-02-08T12:34:03.017Z,128.13
2018-02-08T12:36:30.669Z,94.57
2018-02-08T12:38:58.344Z,112.93
2018-02-08T12:41:25.993Z,107.70
2018-02-08T12:43:53.686Z,102.20
2018-02-08T12:46:22.997Z,99.67
2018-02-08T12:48:50.675Z,99.17
2018-02-08T12:51:18.322Z,98.93
2018-02-08T12:53:45.970Z,105.13
2018-02-08T12:56:13.662Z,111.90
2018-02-08T12:58:41.317Z,103.90
2018-02-08T13:01:09.006Z,109.87
2018-02-08T13:03:37.422Z,97.17
2018-02-08T13:06:05.087Z,103.47
2018-02-08T13:08:32.776Z,103.97
2018-02-08T13:11:00.410Z,106.27
2018-02-08T13:13:28.087Z,105.43
2018-02-08T13:15:55.766Z,113.77
2018-02-08T13:18:23.406Z,97.63
2018-02-08T13:20:51.058Z,105.40
2018-02-08T13:23:18.729Z,106.30
2018-02-08T13:25:46.388Z,103.83
2018-02-08T13:28:14.053Z,111.37
2018-02-08T13:30:41.761Z,110.77
2018-02-08T13:33:09.409Z,107.60
2018-02-08T13:35:37.052Z,108.90
2018-02-08T13:38:04.728Z,103.30
2018-02-08T13:40:34.755Z,105.47
2018-02-08T13:43:02.438Z,92.53
2018-02-08T13:45:30.896Z,105.17
2018-02-08T13:48:15.255Z,112.77
2018-02-08T13:53:55.777Z,110.73
2018-02-08T13:56:26.292Z,118.93
2018-02-08T13:58:59.596Z,101.43
2018-02-08T14:01:27.290Z,105.73
2018-02-08T14:03:54.939Z,107.47
2018-02-08T14:06:22.593Z,109.57
2018-02-08T14:08:50.273Z,108.43
2018-02-08T14:11:17.939Z,105.87
2018-02-08T14:13:45.589Z,107.73
2018-02-08T14:16:13.311Z,100.80
2018-02-08T14:18:41.738Z,98.70
2018-02-08T14:21:09.383Z,108.23
2018-02-08T14:23:37.061Z,106.77
2018-02-08T14:26:04.712Z,114.77
2018-02-08T14:28:32.383Z,108.60
2018-02-08T14:31:00.134Z,117.10
2018-02-08T14:33:27.789Z,102.30
2018-02-08T14:35:55.446Z,112.87
2018-02-08T14:38:23.123Z,112.23
2018-02-08T14:40:50.764Z,120.97
2018-02-08T14:43:19.249Z,113.07
2018-02-08T14:45:46.918Z,105.53
2018-02-08T14:48:14.556Z,111.03
2018-02-08T14:50:43.046Z,110.40
2018-02-08T14:53:10.709Z,106.53
2018-02-08T14:55:39.125Z,115.07
2018-02-08T14:58:06.805Z,115.97
2018-02-08T15:00:34.523Z,107.93
2018-02-08T15:03:02.186Z,101.47
2018-02-08T15:05:29.844Z,139.37
2018-02-08T15:07:57.571Z,142.37
2018-02-08T15:10:25.251Z,122.60
2018-02-08T15:12:53.664Z,98.17
2018-02-08T15:15:21.450Z,106.23
2018-02-08T15:17:49.143Z,102.73
2018-02-08T15:20:16.826Z,139.73
2018-02-08T15:22:45.242Z,110.50
2018-02-08T15:25:12.930Z,96.70
2018-02-08T15:27:40.647Z,108.43
2018-02-08T15:30:08.289Z,107.43
2018-02-08T15:32:36.711Z,100.30
2018-02-08T15:35:04.513Z,105.87
2018-02-08T15:37:32.169Z,113.37
2018-02-08T15:39:59.858Z,120.80
2018-02-08T15:42:28.300Z,114.83
2018-02-08T15:44:55.975Z,107.10
2018-02-08T15:47:23.697Z,116.40
2018-02-08T15:49:51.364Z,117.83
2018-02-08T15:52:19.473Z,120.10
2018-02-08T15:54:47.248Z,118.10
2018-02-08T15:57:14.939Z,118.27
2018-02-08T15:59:43.356Z,106.83
2018-02-08T16:02:11.096Z,112.23
2018-02-08T16:04:38.795Z,113.73
2018-02-08T16:07:08.306Z,112.70
2018-02-08T16:09:35.993Z,116.13
2018-02-08T16:12:03.644Z,111.33
2018-02-08T16:14:31.294Z,114.70
2018-02-08T16:16:58.974Z,106.00
2018-02-08T16:19:26.629Z,114.70
2018-02-08T16:21:54.339Z,115.17
2018-02-08T16:24:21.994Z,112.00
2018-02-08T16:26:49.791Z,115.60
2018-02-08T16:29:17.488Z,105.57
2018-02-08T16:31:45.137Z,108.33
2018-02-08T16:34:12.860Z,117.03
2018-02-08T16:36:40.532Z,117.20
2018-02-08T16:39:08.190Z,112.30
2018-02-08T16:41:35.913Z,109.97
2018-02-08T16:44:04.326Z,115.87
2018-02-08T16:46:31.966Z,119.00
2018-02-08T16:49:00.417Z,108.97
2018-02-08T16:51:28.065Z,109.93
2018-02-08T16:53:55.695Z,118.13
2018-02-08T16:56:23.383Z,114.90
2018-02-08T16:58:51.036Z,115.70
2018-02-08T17:01:18.685Z,109.57
2018-02-08T17:03:46.390Z,115.87
2018-02-08T17:06:14.043Z,112.53
2018-02-08T17:08:41.762Z,105.87
2018-02-08T17:11:09.412Z,112.47
2018-02-08T17:13:37.065Z,110.97
2018-02-08T17:16:04.759Z,103.38
2018-02-08T17:18:32.409Z,100.43
2018-02-08T17:21:00.100Z,115.95
2018-02-08T17:23:28.510Z,112.33
2018-02-08T17:25:56.938Z,120.78
2018-02-08T17:28:24.657Z,119.77
2018-02-08T17:30:53.150Z,111.80
2018-02-08T17:33:20.808Z,109.70
2018-02-08T17:35:49.282Z,121.90
2018-02-08T17:38:17.696Z,122.23
2018-02-08T17:40:45.345Z,108.87
2018-02-08T17:43:13.024Z,116.87
2018-02-08T17:45:40.661Z,104.57
2018-02-08T17:48:08.378Z,103.77
2018-02-08T17:50:36.051Z,113.20
2018-02-08T17:53:03.717Z,115.90
2018-02-08T17:55:31.404Z,113.10
2018-02-08T17:57:59.819Z,105.75
2018-02-08T18:00:27.536Z,121.05
2018-02-08T18:02:56.019Z,127.80
2018-02-08T18:05:24.452Z,121.97
2018-02-08T18:07:52.093Z,123.33
2018-02-08T18:10:19.782Z,136.50
2018-02-08T18:12:47.454Z,133.10
2018-02-08T18:15:15.352Z,121.78
2018-02-08T18:17:43.773Z,135.03
2018-02-08T18:20:11.425Z,143.52
2018-02-08T18:22:39.370Z,120.63
2018-02-08T18:25:07.848Z,124.47
2018-02-08T18:27:36.520Z,121.17
2018-02-08T18:30:04.981Z,131.43
2018-02-08T18:32:32.796Z,125.17
2018-02-08T18:35:00.489Z,125.13
2018-02-08T18:37:28.205Z,124.72
2018-02-08T18:39:56.627Z,123.93
2018-02-08T18:42:24.297Z,113.15
2018-02-08T18:44:51.999Z,118.80
2018-02-08T18:47:20.424Z,114.90
2018-02-08T18:49:48.103Z,110.12
2018-02-08T18:52:15.810Z,126.68
2018-02-08T18:54:44.224Z,113.95
2018-02-08T18:57:11.881Z,126.55
2018-02-08T18:59:39.584Z,111.90
2018-02-08T19:02:07.242Z,118.05
2018-02-08T19:04:34.897Z,128.00
2018-02-08T19:07:02.600Z,120.60
2018-02-08T19:09:31.044Z,125.12
2018-02-08T19:11:58.716Z,122.80
2018-02-08T19:14:26.398Z,125.05
2018-02-08T19:16:54.826Z,109.45
2018-02-08T19:19:22.552Z,129.60
2018-02-08T19:21:51.016Z,128.25
2018-02-08T19:24:18.665Z,122.45
2018-02-08T19:26:46.398Z,127.40
2018-02-08T19:29:14.062Z,133.12
2018-02-08T19:31:41.739Z,129.00
2018-02-08T19:34:09.429Z,128.85
2018-02-08T19:36:37.104Z,127.93
2018-02-08T19:39:05.537Z,124.75
2018-02-08T19:41:33.247Z,120.18
2018-02-08T19:44:01.672Z,130.05
2018-02-08T19:46:29.328Z,129.60
2018-02-08T19:48:57.029Z,129.57
2018-02-08T19:51:24.681Z,126.35
2018-02-08T19:53:52.341Z,128.77
2018-02-08T19:56:20.044Z,118.25
2018-02-08T19:58:48.448Z,139.30
2018-02-08T20:01:16.105Z,136.50
2018-02-08T20:03:43.809Z,156.12
2018-02-08T20:06:11.447Z,152.35
2018-02-08T20:08:39.129Z,151.25
2018-02-08T20:11:06.818Z,148.68
2018-02-08T20:13:35.240Z,143.68
2018-02-08T20:16:03.000Z,154.48
2018-02-08T20:18:30.665Z,142.40
2018-02-08T20:20:58.330Z,142.35
2018-02-08T20:23:26.119Z,143.62
2018-02-08T20:25:53.764Z,136.45
2018-02-08T20:28:21.498Z,142.60
2018-02-08T20:33:53.117Z,136.98
2018-02-08T20:36:20.785Z,135.60
2018-02-08T20:38:48.440Z,136.10
2018-02-08T20:41:16.105Z,122.68
2018-02-08T20:43:43.792Z,115.53
2018-02-08T20:46:11.440Z,112.67
2018-02-08T20:48:39.104Z,112.88
2018-02-08T20:51:06.772Z,113.67
2018-02-08T20:53:34.421Z,108.90
2018-02-08T20:56:02.063Z,117.57
2018-02-08T20:58:29.743Z,121.27
2018-02-08T21:00:57.389Z,105.77
2018-02-08T21:03:25.066Z,119.83
2018-02-08T21:05:52.717Z,113.17
2018-02-08T21:08:20.384Z,113.00
2018-02-08T21:10:48.044Z,113.77
2018-02-08T21:13:15.685Z,113.33
2018-02-08T21:15:44.393Z,111.80
2018-02-08T21:18:12.037Z,119.50
2018-02-08T21:20:39.677Z,114.60
2018-02-08T21:23:07.379Z,121.23
2018-02-08T21:25:35.026Z,119.60
2018-02-08T21:28:03.468Z,120.87
2018-02-08T21:30:31.921Z,120.20
2018-02-08T21:32:59.593Z,115.90
2018-02-08T21:35:27.241Z,124.60
2018-02-08T21:37:54.918Z,124.00
2018-02-08T21:40:22.635Z,109.07
2018-02-08T21:42:50.339Z,128.80
2018-02-08T21:45:17.987Z,118.50
2018-02-08T21:47:45.706Z,119.57
2018-02-08T21:50:13.347Z,123.00
2018-02-08T21:52:41.759Z,114.97
2018-02-08T21:55:09.425Z,116.73
2018-02-08T21:57:37.051Z,117.13
2018-02-08T22:00:05.528Z,114.97
2018-02-08T22:02:33.926Z,118.43
2018-02-08T22:05:01.570Z,118.83
2018-02-08T22:07:30.088Z,121.00
2018-02-08T22:09:57.739Z,102.67
2018-02-08T22:12:25.379Z,102.13
2018-02-08T22:14:53.855Z,122.10
2018-02-08T22:17:22.280Z,105.00
2018-02-08T22:19:49.934Z,112.83
2018-02-08T22:22:17.613Z,119.67
2018-02-08T22:24:45.262Z,115.00
2018-02-08T22:27:12.909Z,103.93
2018-02-08T22:29:40.613Z,124.10
2018-02-08T22:32:08.261Z,111.67
2018-02-08T22:34:35.901Z,117.53
2018-02-08T22:37:03.597Z,99.70
2018-02-08T22:39:31.245Z,116.97
2018-02-08T22:41:58.888Z,119.77
2018-02-08T22:44:26.572Z,119.50
2018-02-08T22:46:54.208Z,112.30
2018-02-08T22:49:21.870Z,102.83
2018-02-08T22:51:49.531Z,107.93
2018-02-08T22:54:17.221Z,109.80
2018-02-08T22:56:44.879Z,107.50
2018-02-08T22:59:12.552Z,114.63
2018-02-08T23:01:40.198Z,114.43
2018-02-08T23:04:07.866Z,105.07
2018-02-08T23:06:35.504Z,110.03
2018-02-08T23:09:03.156Z,113.50
2018-02-08T23:11:30.830Z,112.07
2018-02-08T23:13:58.470Z,123.37
2018-02-08T23:16:26.924Z,133.60
2018-02-08T23:18:54.587Z,121.80
2018-02-08T23:21:22.232Z,112.87
2018-02-08T23:23:49.893Z,116.77
2018-02-08T23:26:17.560Z,111.20
2018-02-08T23:28:45.249Z,115.40
2018-02-08T23:31:13.681Z,123.13
2018-02-08T23:33:41.342Z,116.47
2018-02-08T23:36:09.025Z,111.80
2018-02-08T23:38:36.682Z,110.60
2018-02-08T23:41:04.349Z,121.53
2018-02-08T23:43:32.032Z,115.17
2018-02-08T23:46:00.443Z,116.97
2018-02-08T23:48:28.133Z,114.93
2018-02-08T23:50:55.783Z,123.03
2018-02-08T23:53:23.446Z,108.70
2018-02-08T23:55:51.130Z,108.53
2018-02-08T23:58:18.814Z,112.90
